Time;durP1;ratioP1;P1;durP2;ratioP2;P2;SDS_P1;SDS_P2;PMS_P1;PMS_P2;Temp;Humidity;BMP_temperature;BMP_pressure;BME280_temperature;BME280_humidity;BME280_pressure;Samples;Min_cycle;Max_cycle;Signal;HPM_P1;HPM_P2
2022/04/28 00:00:33;;;;;;;10.07;6.05;;;9.70;64.70;;;;;;5094914;28;20115;-76
2022/04/28 00:03:00;;;;;;;11.90;6.40;;;9.70;64.90;;;;;;5095173;28;20040;-75
2022/04/28 00:05:26;;;;;;;14.52;7.78;;;9.60;64.90;;;;;;5094814;28;20028;-74
2022/04/28 00:07:53;;;;;;;13.95;7.22;;;9.50;65.10;;;;;;5111385;28;20458;-74
2022/04/28 00:10:20;;;;;;;13.95;6.95;;;9.40;65.10;;;;;;5097999;28;20028;-73
2022/04/28 00:12:46;;;;;;;9.63;5.85;;;9.40;64.80;;;;;;5098386;28;20046;-76
2022/04/28 00:15:12;;;;;;;14.55;7.35;;;9.30;65.60;;;;;;5116079;28;20023;-76
2022/04/28 00:17:39;;;;;;;11.88;6.75;;;9.30;65.70;;;;;;5116649;28;20052;-76
2022/04/28 00:20:07;;;;;;;11.70;6.57;;;9.20;65.10;;;;;;5115059;28;20024;-74
2022/04/28 00:22:33;;;;;;;11.43;6.47;;;9.20;65.70;;;;;;5115472;28;20101;-75
2022/04/28 00:24:59;;;;;;;;;;;9.20;65.80;;;;;;5098653;28;20024;-74
2022/04/28 00:27:26;;;;;;;10.75;6.18;;;9.10;65.30;;;;;;5115505;28;19919;-74
2022/04/28 00:29:52;;;;;;;9.82;5.97;;;9.10;65.60;;;;;;5115082;28;20035;-74
2022/04/28 00:32:18;;;;;;;14.82;6.43;;;9.00;65.70;;;;;;5114487;28;20050;-76
2022/04/28 00:34:46;;;;;;;9.25;5.10;;;8.90;65.10;;;;;;5115017;28;20039;-76
2022/04/28 00:37:13;;;;;;;13.15;6.53;;;8.90;65.40;;;;;;5113527;28;20071;-76
2022/04/28 00:39:40;;;;;;;9.52;5.60;;;8.80;65.20;;;;;;5114915;28;20114;-75
2022/04/28 00:42:26;;;;;;;13.98;6.20;;;8.80;65.30;;;;;;5114332;28;20031;-76
2022/04/28 00:44:52;;;;;;;9.82;5.40;;;8.80;65.50;;;;;;5114888;28;20069;-76
2022/04/28 00:47:18;;;;;;;10.20;5.50;;;8.80;65.20;;;;;;5115593;28;20066;-76
2022/04/28 00:52:33;;;;;;;11.43;5.95;;;8.70;65.50;;;;;;5114769;28;20051;-76
2022/04/28 00:55:00;;;;;;;11.98;6.18;;;8.60;65.70;;;;;;5115869;28;20483;-74
2022/04/28 00:57:29;;;;;;;12.63;5.10;;;8.60;65.20;;;;;;5114090;28;20036;-74
2022/04/28 00:59:56;;;;;;;10.45;5.38;;;8.60;65.60;;;;;;5097125;28;20028;-76
2022/04/28 01:02:22;;;;;;;11.05;6.00;;;8.60;65.70;;;;;;5114026;28;20062;-74
2022/04/28 01:04:49;;;;;;;13.55;5.50;;;8.50;65.80;;;;;;5115695;28;20031;-74
2022/04/28 01:07:17;;;;;;;10.35;5.60;;;8.40;65.20;;;;;;5095880;28;20063;-76
2022/04/28 01:09:43;;;;;;;10.02;5.25;;;8.40;65.70;;;;;;5114274;28;20067;-74
2022/04/28 01:12:28;;;;;;;11.15;5.90;;;8.30;65.90;;;;;;5113726;28;20081;-76
2022/04/28 01:14:54;;;;;;;12.27;6.18;;;8.30;66.30;;;;;;5114284;28;20058;-75
2022/04/28 01:17:21;;;;;;;12.63;5.80;;;8.20;66.20;;;;;;5113731;28;20118;-74
2022/04/28 01:19:47;;;;;;;10.27;5.43;;;8.10;66.30;;;;;;5115452;28;20035;-75
2022/04/28 01:22:13;;;;;;;10.32;6.10;;;8.10;66.40;;;;;;5095612;28;20028;-74
2022/04/28 01:24:40;;;;;;;11.30;6.47;;;8.10;66.40;;;;;;5114164;28;20036;-74
2022/04/28 01:27:07;;;;;;;12.27;5.82;;;8.00;66.40;;;;;;5113254;28;20035;-76
2022/04/28 01:29:34;;;;;;;11.88;6.47;;;8.00;66.50;;;;;;5113979;28;20103;-75
2022/04/28 01:32:01;;;;;;;19.30;7.00;;;7.90;66.00;;;;;;5113460;28;20032;-76
2022/04/28 01:34:28;;;;;;;12.38;6.72;;;7.90;66.60;;;;;;5096807;28;20111;-75
2022/04/28 01:36:54;;;;;;;;;;;7.90;66.80;;;;;;5112998;28;20028;-74
2022/04/28 01:39:20;;;;;;;12.27;6.55;;;7.80;65.70;;;;;;5113801;28;19988;-75
2022/04/28 01:42:05;;;;;;;;;;;7.80;66.70;;;;;;5113922;28;20051;-75
2022/04/28 01:44:32;;;;;;;13.88;6.72;;;7.70;66.20;;;;;;5114840;28;19934;-74
2022/04/28 01:47:00;;;;;;;10.63;6.10;;;7.70;66.70;;;;;;5114305;28;20103;-74
2022/04/28 01:49:26;;;;;;;9.63;5.57;;;7.60;66.70;;;;;;5113437;28;20033;-73
2022/04/28 01:57:21;;;;;;;8.95;5.20;;;7.50;66.60;;;;;;5114397;28;20117;-75
2022/04/28 01:59:48;;;;;;;13.05;5.90;;;7.40;66.80;;;;;;5113430;28;20038;-74
2022/04/28 02:02:14;;;;;;;10.98;6.88;;;7.30;66.20;;;;;;5114018;28;20056;-74
2022/04/28 02:04:40;;;;;;;12.63;6.95;;;7.30;66.80;;;;;;5114539;28;20028;-73
2022/04/28 02:07:11;;;;;;;11.88;5.65;;;7.30;66.90;;;;;;5111597;28;20035;-74
2022/04/28 02:09:38;;;;;;;11.70;6.47;;;7.20;66.90;;;;;;5113109;28;20063;-75
2022/04/28 02:12:04;;;;;;;11.75;6.38;;;7.20;66.90;;;;;;5094719;28;20059;-75
2022/04/28 02:14:30;;;;;;;;;;;7.20;66.90;;;;;;5113684;28;20035;-73
2022/04/28 02:16:56;;;;;;;11.13;5.72;;;7.20;66.40;;;;;;5113772;28;19919;-73
2022/04/28 02:19:22;;;;;;;10.13;5.43;;;7.20;66.60;;;;;;5112786;28;20466;-74
2022/04/28 02:21:48;;;;;;;11.35;6.28;;;7.20;66.70;;;;;;5112649;28;20039;-73
2022/04/28 02:24:15;;;;;;;12.20;6.35;;;7.20;66.60;;;;;;5112126;28;20071;-74
2022/04/28 02:26:41;;;;;;;13.65;6.88;;;7.10;66.80;;;;;;5113732;28;20526;-73
2022/04/28 02:29:08;;;;;;;13.68;6.35;;;7.20;66.60;;;;;;5112360;28;20512;-75
2022/04/28 02:31:34;;;;;;;13.90;7.60;;;7.30;66.60;;;;;;5113581;28;20031;-74
2022/04/28 02:34:00;;;;;;;18.58;7.40;;;7.30;66.50;;;;;;5114262;28;20050;-75
2022/04/28 02:36:26;;;;;;;18.90;8.43;;;7.30;66.30;;;;;;5113506;28;20055;-74
2022/04/28 02:38:53;;;;;;;13.25;6.68;;;7.30;66.20;;;;;;5111558;28;20043;-73
2022/04/28 02:41:22;;;;;;;17.27;6.22;;;7.30;66.30;;;;;;5112187;28;20051;-73
2022/04/28 02:43:49;;;;;;;11.60;5.90;;;7.40;65.60;;;;;;5112786;28;20373;-74
2022/04/28 02:46:16;;;;;;;10.75;5.50;;;7.40;65.90;;;;;;5112019;28;20031;-74
2022/04/28 02:48:43;;;;;;;10.80;5.53;;;7.40;66.00;;;;;;5112542;28;20514;-74
2022/04/28 02:51:09;;;;;;;9.23;5.53;;;7.50;66.20;;;;;;5112087;28;20054;-74
2022/04/28 02:53:36;;;;;;;9.70;5.57;;;7.40;65.70;;;;;;5111548;28;20181;-74
2022/04/28 02:56:02;;;;;;;;;;;7.50;66.50;;;;;;5112399;28;20110;-74
2022/04/28 02:58:28;;;;;;;9.07;5.05;;;7.50;66.00;;;;;;5112194;28;19958;-74
2022/04/28 03:00:55;;;;;;;15.02;5.60;;;7.40;66.30;;;;;;5111888;28;20024;-74
2022/04/28 03:03:21;;;;;;;;;;;7.40;65.80;;;;;;5112833;28;20448;-73
2022/04/28 03:11:16;;;;;;;30.10;7.43;;;7.40;67.00;;;;;;5112980;28;20031;-74
2022/04/28 03:13:43;;;;;;;20.52;6.13;;;7.40;67.30;;;;;;5113155;28;20082;-74
2022/04/28 03:16:09;;;;;;;;;;;7.40;67.50;;;;;;5112261;28;20503;-74
2022/04/28 03:18:35;;;;;;;37.17;7.32;;;7.40;67.00;;;;;;5112211;28;19920;-74
2022/04/28 03:21:02;;;;;;;18.02;6.10;;;7.40;67.40;;;;;;5111611;28;20111;-74
2022/04/28 03:23:28;;;;;;;24.75;8.57;;;7.50;67.90;;;;;;5112261;28;20039;-74
2022/04/28 03:25:54;;;;;;;28.42;7.10;;;7.40;68.10;;;;;;5111613;28;20027;-76
2022/04/28 03:28:21;;;;;;;31.75;7.72;;;7.40;68.30;;;;;;5111361;28;20051;-74
2022/04/28 03:30:49;;;;;;;30.92;7.53;;;7.40;68.50;;;;;;5111590;28;20039;-75
2022/04/28 03:33:17;;;;;;;25.60;7.78;;;7.30;68.80;;;;;;5094780;28;20044;-74
2022/04/28 03:35:44;;;;;;;24.83;8.02;;;7.30;69.20;;;;;;5111649;28;20020;-75
2022/04/28 03:38:11;;;;;;;20.20;7.45;;;7.30;69.40;;;;;;5090233;28;20044;-74
2022/04/28 03:40:39;;;;;;;77.18;27.63;;;7.20;69.40;;;;;;5091057;28;20058;-74
2022/04/28 03:43:06;;;;;;;47.33;18.08;;;7.30;69.20;;;;;;5074391;28;20416;-74
2022/04/28 03:45:33;;;;;;;;;;;7.30;68.80;;;;;;5074616;28;20507;-74
2022/04/28 03:48:00;;;;;;;38.13;11.55;;;7.30;68.70;;;;;;5091386;28;20288;-74
2022/04/28 03:53:13;;;;;;;25.80;7.65;;;7.30;69.00;;;;;;5094667;28;20040;-74
2022/04/28 03:55:39;;;;;;;22.65;6.80;;;7.30;69.10;;;;;;5111259;28;20539;-74
2022/04/28 03:58:05;;;;;;;29.35;7.03;;;7.30;69.20;;;;;;5111689;28;20070;-74
2022/04/28 04:00:32;;;;;;;17.42;8.10;;;7.30;69.50;;;;;;5111259;28;20056;-74
2022/04/28 04:02:58;;;;;;;17.67;7.20;;;7.30;69.70;;;;;;5112906;28;20040;-74
2022/04/28 04:05:24;;;;;;;36.47;7.10;;;7.40;70.20;;;;;;5111155;28;20067;-74
2022/04/28 04:07:50;;;;;;;18.05;6.65;;;7.40;69.30;;;;;;5112779;28;20515;-74
2022/04/28 04:10:16;;;;;;;25.58;6.50;;;7.40;69.20;;;;;;5110295;28;20044;-74
2022/04/28 04:12:43;;;;;;;17.70;7.00;;;7.40;69.10;;;;;;5112784;28;20054;-75
2022/04/28 04:15:09;;;;;;;47.00;8.38;;;7.40;69.00;;;;;;5112354;28;20060;-75
2022/04/28 04:17:54;;;;;;;29.58;7.35;;;7.40;68.50;;;;;;5094368;28;20118;-75
2022/04/28 04:20:20;;;;;;;38.75;7.68;;;7.50;69.30;;;;;;5110970;28;20062;-75
2022/04/28 04:22:46;;;;;;;53.67;7.85;;;7.50;69.10;;;;;;5112717;28;20496;-74
2022/04/28 04:25:13;;;;;;;56.92;7.75;;;7.50;69.20;;;;;;5110271;28;20070;-75
2022/04/28 04:27:39;;;;;;;45.17;7.15;;;7.40;69.60;;;;;;5112328;28;20062;-74
2022/04/28 04:32:51;;;;;;;51.63;6.47;;;7.40;69.70;;;;;;5112574;28;20051;-74
2022/04/28 04:35:17;;;;;;;;;;;7.40;69.90;;;;;;5113060;28;20396;-75
2022/04/28 04:37:44;;;;;;;35.05;7.72;;;7.50;69.30;;;;;;5116255;28;19920;-74
2022/04/28 04:40:12;;;;;;;18.52;6.57;;;7.50;69.60;;;;;;5096571;28;20441;-74
2022/04/28 04:42:38;;;;;;;19.65;6.28;;;7.50;69.80;;;;;;5116135;28;20089;-75
2022/04/28 04:45:07;;;;;;;19.13;6.07;;;7.40;69.90;;;;;;5114589;28;20023;-75
2022/04/28 04:47:33;;;;;;;11.70;5.68;;;7.50;69.90;;;;;;5114474;28;20074;-75
2022/04/28 04:50:00;;;;;;;14.20;5.93;;;7.50;70.00;;;;;;5114715;28;20031;-74
2022/04/28 04:52:26;;;;;;;14.80;7.68;;;7.50;70.00;;;;;;5096828;28;20128;-74
2022/04/28 04:54:52;;;;;;;11.48;6.53;;;7.50;70.00;;;;;;5113612;28;20067;-74
2022/04/28 04:57:18;;;;;;;11.75;5.82;;;7.50;70.00;;;;;;5113988;28;20100;-74
2022/04/28 04:59:44;;;;;;;11.80;6.65;;;7.50;70.00;;;;;;5114602;28;20027;-75
2022/04/28 05:02:10;;;;;;;11.80;6.05;;;7.40;70.20;;;;;;5115163;28;20059;-74
2022/04/28 05:04:37;;;;;;;14.70;5.75;;;7.50;69.60;;;;;;5115655;28;20047;-75
2022/04/28 05:07:03;;;;;;;10.82;5.57;;;7.50;70.20;;;;;;5113802;28;20136;-74
2022/04/28 05:09:29;;;;;;;;;;;7.50;69.60;;;;;;5113796;28;20156;-74
2022/04/28 05:11:55;;;;;;;8.82;4.82;;;7.50;69.80;;;;;;5113742;28;20318;-74
2022/04/28 05:14:21;;;;;;;10.57;4.63;;;7.50;70.70;;;;;;5114525;28;20063;-75
2022/04/28 05:16:47;;;;;;;9.82;5.15;;;7.60;70.00;;;;;;5115099;28;20035;-74
2022/04/28 05:19:13;;;;;;;10.60;5.93;;;7.60;70.20;;;;;;5115831;28;20040;-74
2022/04/28 05:21:39;;;;;;;9.82;5.75;;;7.60;70.30;;;;;;5114970;28;20031;-75
2022/04/28 05:24:06;;;;;;;9.52;5.85;;;7.70;70.60;;;;;;5096151;28;20142;-75
2022/04/28 05:26:32;;;;;;;;;;;7.70;70.50;;;;;;5114110;28;20074;-74
2022/04/28 05:28:58;;;;;;;11.48;5.43;;;7.80;70.10;;;;;;5113663;28;19920;-73
2022/04/28 05:31:24;;;;;;;12.60;5.63;;;7.80;70.30;;;;;;5096435;28;20547;-74
2022/04/28 05:33:50;;;;;;;11.00;6.18;;;7.80;70.40;;;;;;5115583;28;20051;-75
2022/04/28 05:36:17;;;;;;;11.30;5.97;;;7.90;70.60;;;;;;5114754;28;20028;-76
2022/04/28 05:38:44;;;;;;;10.25;5.20;;;8.00;70.10;;;;;;5112972;28;20048;-75
2022/04/28 05:41:10;;;;;;;12.93;5.45;;;8.00;70.00;;;;;;5113562;28;20032;-74
2022/04/28 05:46:24;;;;;;;12.50;5.07;;;8.20;70.50;;;;;;5114503;28;20073;-74
2022/04/28 05:48:51;;;;;;;9.48;5.45;;;8.40;69.90;;;;;;5113846;28;20506;-75
2022/04/28 05:51:18;;;;;;;11.85;5.70;;;8.40;70.40;;;;;;5113158;28;20039;-76
2022/04/28 05:53:44;;;;;;;9.40;5.45;;;8.50;70.50;;;;;;5096520;28;20071;-74
2022/04/28 05:56:10;;;;;;;11.95;6.55;;;8.70;70.50;;;;;;5112571;28;20038;-74
2022/04/28 05:58:36;;;;;;;11.68;7.00;;;8.70;70.40;;;;;;5114914;28;20070;-74
2022/04/28 06:01:03;;;;;;;9.73;5.43;;;8.80;70.40;;;;;;5112966;28;20063;-75
2022/04/28 06:03:29;;;;;;;11.98;5.38;;;8.90;70.30;;;;;;5114807;27;20456;-76
2022/04/28 06:05:55;;;;;;;10.23;5.30;;;9.00;70.30;;;;;;5112964;28;20028;-76
2022/04/28 06:08:21;;;;;;;10.07;5.95;;;9.10;70.30;;;;;;5114554;28;20122;-73
2022/04/28 06:10:47;;;;;;;;;;;9.20;70.30;;;;;;5113523;28;20031;-75
2022/04/28 06:13:14;;;;;;;9.52;5.65;;;9.40;69.80;;;;;;5096139;28;20326;-74
2022/04/28 06:15:40;;;;;;;11.60;5.78;;;9.50;69.00;;;;;;5112618;28;20024;-75
2022/04/28 06:18:06;;;;;;;9.70;5.07;;;9.60;69.60;;;;;;5113111;28;20050;-76
2022/04/28 06:20:32;;;;;;;;;;;9.80;69.70;;;;;;5114378;28;20446;-75
2022/04/28 06:22:58;;;;;;;11.77;6.00;;;9.90;69.20;;;;;;5114230;28;19926;-76
2022/04/28 06:25:25;;;;;;;9.60;4.65;;;10.00;69.00;;;;;;5112764;28;20045;-75
2022/04/28 06:27:52;;;;;;;10.65;5.40;;;10.20;69.20;;;;;;5113754;28;20248;-76
2022/04/28 06:30:18;;;;;;;14.38;6.20;;;10.20;68.60;;;;;;5113575;28;20407;-75
2022/04/28 06:32:45;;;;;;;9.90;5.57;;;10.40;69.00;;;;;;5112754;28;20085;-74
2022/04/28 06:35:11;;;;;;;10.60;7.18;;;10.50;69.10;;;;;;5112345;28;20035;-75
2022/04/28 06:37:39;;;;;;;11.27;6.35;;;10.70;68.80;;;;;;5113956;28;20066;-73
2022/04/28 06:40:06;;;;;;;16.20;8.90;;;10.80;68.60;;;;;;5112716;28;20373;-74
2022/04/28 06:42:33;;;;;;;8.25;4.72;;;11.00;68.50;;;;;;5113925;28;20062;-74
2022/04/28 06:44:59;;;;;;;;;;;11.10;67.80;;;;;;5096055;28;20491;-74
2022/04/28 06:47:25;;;;;;;9.30;4.45;;;11.20;68.10;;;;;;5113203;28;19927;-75
2022/04/28 06:49:51;;;;;;;11.52;4.97;;;11.40;67.90;;;;;;5095498;28;20063;-76
2022/04/28 06:52:17;;;;;;;8.30;4.50;;;11.40;67.80;;;;;;5113163;28;20042;-74
2022/04/28 06:54:43;;;;;;;9.40;5.22;;;11.60;67.50;;;;;;5112686;28;20082;-75
2022/04/28 06:57:10;;;;;;;11.23;5.60;;;11.90;67.20;;;;;;5111934;28;20035;-74
2022/04/28 06:59:36;;;;;;;9.07;4.88;;;12.10;67.00;;;;;;5113077;28;20030;-75
2022/04/28 07:02:04;;;;;;;7.47;4.20;;;12.40;66.50;;;;;;5111614;28;20546;-74
2022/04/28 07:04:31;;;;;;;8.57;4.18;;;12.60;65.30;;;;;;5095276;28;20059;-74
2022/04/28 07:06:57;;;;;;;9.45;4.18;;;12.90;65.30;;;;;;5113008;28;20066;-74
2022/04/28 07:09:23;;;;;;;7.90;4.18;;;13.10;64.00;;;;;;5094566;28;20035;-76
2022/04/28 07:11:49;;;;;;;8.18;4.55;;;13.30;64.10;;;;;;5111204;28;20055;-75
2022/04/28 07:14:16;;;;;;;6.95;3.63;;;13.60;63.70;;;;;;5113724;28;20147;-74
2022/04/28 07:16:43;;;;;;;9.73;4.18;;;14.00;62.30;;;;;;5111551;28;20441;-76
2022/04/28 07:19:09;;;;;;;8.55;3.05;;;14.30;61.70;;;;;;5112187;28;20395;-76
2022/04/28 07:21:36;;;;;;;8.32;3.47;;;14.80;59.10;;;;;;5112800;28;20073;-74
2022/04/28 07:24:02;;;;;;;7.85;3.13;;;15.10;57.00;;;;;;5112100;28;20055;-74
2022/04/28 07:26:28;;;;;;;;;;;15.40;55.40;;;;;;5111032;28;20448;-74
2022/04/28 07:28:55;;;;;;;6.50;2.47;;;15.70;56.20;;;;;;5111558;28;20326;-74
2022/04/28 07:31:21;;;;;;;;;;;15.90;52.40;;;;;;5094941;28;20055;-76
2022/04/28 07:33:47;;;;;;;11.85;3.38;;;16.30;54.70;;;;;;5111847;28;19926;-76
2022/04/28 07:36:13;;;;;;;7.68;3.10;;;16.60;50.60;;;;;;5111429;28;20400;-76
2022/04/28 07:38:41;;;;;;;7.10;3.00;;;16.90;49.70;;;;;;5111862;28;20044;-74
2022/04/28 07:41:08;;;;;;;6.72;3.05;;;17.20;48.80;;;;;;5110437;28;20030;-76
2022/04/28 07:43:34;;;;;;;7.75;3.45;;;17.50;47.30;;;;;;5094947;28;20047;-74
2022/04/28 07:46:00;;;;;;;7.03;3.55;;;17.90;46.10;;;;;;5112561;28;20043;-74
2022/04/28 07:48:26;;;;;;;11.55;4.60;;;18.30;44.60;;;;;;5111663;28;20089;-73
2022/04/28 07:50:53;;;;;;;7.63;3.40;;;18.70;45.10;;;;;;5111337;28;20038;-74
2022/04/28 07:53:19;;;;;;;10.70;3.30;;;19.00;42.00;;;;;;5113075;28;20556;-76
2022/04/28 07:56:10;;;;;;;;;;;19.30;41.80;;;;;;5093941;28;20028;-78
2022/04/28 07:58:31;;;;;;;6.93;3.13;;;19.80;44.50;;;;;;5112956;28;20419;-74
2022/04/28 08:00:59;;;;;;;7.57;3.05;;;20.30;40.50;;;;;;5112438;28;20024;-76
2022/04/28 08:03:26;;;;;;;7.07;3.10;;;20.50;37.90;;;;;;5111654;28;20035;-76
2022/04/28 08:06:13;;;;;;;8.60;2.58;;;20.80;37.60;;;;;;5111193;28;20036;-77
2022/04/28 08:08:41;;;;;;;6.45;2.60;;;21.50;38.30;;;;;;5113063;28;20040;-77
2022/04/28 08:11:07;;;;;;;9.15;3.25;;;22.00;35.90;;;;;;5112018;28;20594;-74
2022/04/28 08:13:34;;;;;;;7.07;3.00;;;22.40;34.70;;;;;;5116910;27;20039;-77
2022/04/28 08:16:01;;;;;;;9.75;3.75;;;22.80;34.70;;;;;;5115123;28;20468;-74
2022/04/28 08:21:14;;;;;;;8.35;4.25;;;24.00;33.00;;;;;;5115118;28;20092;-74
2022/04/28 08:23:40;;;;;;;7.40;4.45;;;24.80;33.00;;;;;;5116788;28;20495;-78
2022/04/28 08:26:06;;;;;;;16.02;6.28;;;25.50;31.30;;;;;;5115123;28;20036;-78
2022/04/28 08:28:33;;;;;;;9.85;4.25;;;26.00;29.80;;;;;;5097724;28;20067;-74
2022/04/28 08:30:59;;;;;;;6.28;2.60;;;26.50;29.30;;;;;;5114940;28;20027;-74
2022/04/28 08:33:25;;;;;;;6.38;3.00;;;26.60;27.60;;;;;;5115156;28;20032;-78
2022/04/28 08:35:52;;;;;;;5.93;2.80;;;27.00;27.80;;;;;;5115869;28;20108;-74
2022/04/28 08:38:18;;;;;;;6.90;3.67;;;27.40;26.70;;;;;;5116376;27;20040;-79
2022/04/28 08:40:48;;;;;;;6.18;3.25;;;27.60;25.40;;;;;;5113671;28;20050;-77
2022/04/28 08:43:15;;;;;;;5.82;2.70;;;27.90;25.40;;;;;;5116278;28;20062;-77
2022/04/28 08:48:34;;;;;;;12.48;3.40;;;28.90;24.20;;;;;;5115123;28;20132;-76
2022/04/28 08:51:01;;;;;;;5.82;2.75;;;29.30;24.40;;;;;;5114454;28;20558;-77
2022/04/28 08:53:28;;;;;;;4.72;2.28;;;29.80;23.40;;;;;;5115927;27;20123;-73
2022/04/28 08:55:57;;;;;;;5.95;2.38;;;30.10;22.40;;;;;;5109980;28;20028;-74
2022/04/28 08:58:24;;;;;;;6.35;2.38;;;30.00;20.40;;;;;;5077668;28;20097;-74
2022/04/28 09:00:52;;;;;;;9.35;2.63;;;30.10;19.80;;;;;;5095120;28;20278;-77
2022/04/28 09:03:19;;;;;;;5.00;2.00;;;30.50;18.90;;;;;;5095588;28;20388;-78
2022/04/28 09:05:48;;;;;;;6.80;2.35;;;30.50;18.30;;;;;;5094959;28;20056;-77
2022/04/28 09:08:18;;;;;;;7.75;2.08;;;30.70;18.00;;;;;;5094047;28;20496;-76
2022/04/28 09:10:44;;;;;;;9.90;2.70;;;31.00;17.90;;;;;;5096933;28;20412;-74
2022/04/28 09:15:56;;;;;;;7.70;2.05;;;31.70;17.00;;;;;;5115231;28;20465;-74
2022/04/28 09:18:23;;;;;;;5.40;2.55;;;31.90;16.50;;;;;;5114224;28;20038;-72
2022/04/28 09:20:51;;;;;;;6.15;2.40;;;32.30;17.40;;;;;;5113611;28;20119;-77
2022/04/28 09:23:18;;;;;;;5.70;2.55;;;32.50;16.00;;;;;;5114050;28;20035;-77
2022/04/28 09:25:45;;;;;;;6.07;2.47;;;32.80;16.00;;;;;;5112780;28;20120;-74
2022/04/28 09:28:13;;;;;;;4.82;2.30;;;33.40;16.20;;;;;;5113748;28;20105;-77
2022/04/28 09:30:58;;;;;;;4.70;2.47;;;33.70;15.50;;;;;;5113534;28;20120;-74
2022/04/28 09:33:24;;;;;;;4.65;2.45;;;34.10;15.70;;;;;;5113924;28;20074;-78
2022/04/28 09:35:53;;;;;;;4.90;2.38;;;34.50;15.60;;;;;;5113536;28;20070;-74
2022/04/28 09:38:20;;;;;;;5.57;2.38;;;34.70;14.90;;;;;;5113805;28;20038;-77
2022/04/28 09:43:34;;;;;;;5.90;2.83;;;35.10;14.90;;;;;;5115336;28;20055;-74
2022/04/28 09:46:04;;;;;;;4.78;2.42;;;35.50;14.50;;;;;;5114511;28;20039;-77
2022/04/28 09:48:33;;;;;;;5.18;2.70;;;35.70;14.00;;;;;;5113686;28;20039;-76
2022/04/28 09:51:03;;;;;;;4.90;2.53;;;35.80;13.70;;;;;;5113229;28;20051;-77
2022/04/28 09:53:53;;;;;;;7.65;2.80;;;36.10;13.50;;;;;;5113656;28;20093;-76
2022/04/28 09:56:40;;;;;;;5.60;2.83;;;36.30;13.80;;;;;;5112258;28;20032;-74
2022/04/28 09:59:09;;;;;;;9.90;2.67;;;36.10;13.80;;;;;;5113509;28;20063;-73
2022/04/28 10:01:37;;;;;;;5.20;2.85;;;36.70;12.90;;;;;;5112987;28;20028;-76
2022/04/28 10:04:05;;;;;;;7.57;2.90;;;37.20;12.70;;;;;;5096531;28;20028;-76
2022/04/28 10:06:35;;;;;;;4.82;2.50;;;37.40;12.70;;;;;;5112918;28;20028;-74
2022/04/28 10:09:20;;;;;;;5.00;2.70;;;38.00;12.30;;;;;;5113434;28;20039;-76
2022/04/28 10:11:50;;;;;;;4.80;2.28;;;38.30;12.20;;;;;;5111822;28;20118;-73
2022/04/28 10:14:21;;;;;;;6.38;2.47;;;38.20;11.80;;;;;;5113313;28;20448;-73
2022/04/28 10:16:50;;;;;;;6.75;2.80;;;38.20;11.70;;;;;;5095723;28;20430;-74
2022/04/28 10:19:38;;;;;;;5.82;2.40;;;38.50;11.60;;;;;;5113193;28;20572;-76
2022/04/28 10:22:29;;;;;;;6.65;2.58;;;39.00;12.20;;;;;;5113657;28;20080;-73
2022/04/28 10:33:40;;;;;;;5.07;2.58;;;40.70;11.00;;;;;;5113480;28;20109;-73
2022/04/28 10:36:15;;;;;;;6.68;2.72;;;41.20;11.80;;;;;;5112329;28;20057;-73
2022/04/28 10:38:42;;;;;;;9.60;5.32;;;41.50;10.40;;;;;;5112855;28;20036;-77
2022/04/28 10:41:11;;;;;;;5.72;2.92;;;41.90;10.00;;;;;;5112121;28;20479;-76
2022/04/28 10:43:40;;;;;;;5.43;2.60;;;41.40;10.00;;;;;;5092835;28;20487;-73
2022/04/28 10:47:07;;;;;;;6.68;2.60;;;41.10;10.70;;;;;;5091884;28;20432;-75
2022/04/28 10:49:53;;;;;;;4.63;2.20;;;41.30;11.10;;;;;;5093592;28;20036;-73
2022/04/28 10:52:40;;;;;;;8.10;3.00;;;41.50;10.10;;;;;;5091659;28;20047;-74
2022/04/28 10:55:09;;;;;;;5.30;2.45;;;41.30;10.00;;;;;;5093042;28;20059;-77
2022/04/28 10:57:37;;;;;;;4.95;2.90;;;42.00;9.70;;;;;;5082210;28;20047;-76
2022/04/28 11:00:05;;;;;;;4.80;2.47;;;42.30;9.60;;;;;;5091856;28;20035;-73
2022/04/28 11:02:58;;;;;;;6.68;2.50;;;42.60;9.40;;;;;;5092978;28;20396;-76
2022/04/28 11:05:43;;;;;;;7.15;2.70;;;42.80;9.40;;;;;;5091459;28;20067;-74
2022/04/28 11:08:23;;;;;;;5.13;2.87;;;42.60;9.30;;;;;;5093200;28;20510;-76
2022/04/28 11:11:09;;;;;;;6.00;3.03;;;43.10;9.20;;;;;;5092711;28;20036;-74
2022/04/28 11:13:37;;;;;;;5.00;2.60;;;43.60;9.40;;;;;;5109381;28;20066;-74
2022/04/28 11:16:03;;;;;;;4.28;2.17;;;42.80;9.00;;;;;;5094715;28;20403;-75
2022/04/28 11:18:30;;;;;;;4.93;2.25;;;43.00;9.00;;;;;;5113546;28;20046;-76
2022/04/28 11:21:15;;;;;;;7.22;2.88;;;43.00;9.00;;;;;;5111689;28;20511;-74
2022/04/28 11:23:45;;;;;;;5.87;2.67;;;43.30;9.10;;;;;;5111820;28;20032;-76
2022/04/28 11:26:12;;;;;;;4.20;2.60;;;43.70;8.60;;;;;;5111671;28;20102;-76
2022/04/28 11:28:40;;;;;;;9.32;2.97;;;43.80;8.20;;;;;;5111971;28;20519;-73
2022/04/28 11:31:27;;;;;;;5.95;2.50;;;44.60;8.30;;;;;;5111544;28;20536;-74
2022/04/28 11:33:54;;;;;;;7.55;2.80;;;44.50;8.90;;;;;;5113388;28;20040;-74
2022/04/28 11:36:41;;;;;;;4.70;2.58;;;44.40;8.40;;;;;;5111317;28;20138;-75
2022/04/28 11:39:09;;;;;;;4.22;2.45;;;43.20;8.80;;;;;;5113396;28;20038;-76
2022/04/28 11:41:40;;;;;;;5.95;2.50;;;43.10;9.00;;;;;;5094472;28;20051;-76
2022/04/28 11:44:26;;;;;;;6.55;2.60;;;44.10;8.80;;;;;;5111832;28;20046;-73
2022/04/28 11:46:53;;;;;;;5.50;3.10;;;44.90;7.80;;;;;;5115616;28;20042;-77
2022/04/28 11:49:20;;;;;;;7.35;3.47;;;45.10;8.50;;;;;;5116073;28;20038;-77
2022/04/28 11:51:47;;;;;;;5.47;3.00;;;45.00;7.80;;;;;;5115579;28;20031;-73
2022/04/28 11:54:32;;;;;;;5.65;2.78;;;45.10;8.20;;;;;;5115899;28;20110;-75
2022/04/28 11:57:18;;;;;;;4.93;2.85;;;45.30;8.70;;;;;;5114481;28;20043;-74
2022/04/28 11:59:44;;;;;;;8.63;3.10;;;45.00;8.80;;;;;;5115815;28;20039;-77
2022/04/28 12:02:48;;;;;;;8.65;3.10;;;43.00;9.30;;;;;;5115103;28;20035;-76
2022/04/28 12:05:34;;;;;;;4.75;2.40;;;41.80;9.80;;;;;;5116467;28;20042;-74
2022/04/28 12:08:00;;;;;;;;;;;43.00;9.60;;;;;;5116196;28;20039;-74
2022/04/28 12:16:22;;;;;;;4.60;2.60;;;45.40;8.30;;;;;;5116299;28;20518;-74
2022/04/28 12:21:52;;;;;;;5.03;2.58;;;45.80;7.70;;;;;;5115241;28;20030;-76
2022/04/28 12:24:19;;;;;;;5.53;2.80;;;45.70;8.00;;;;;;5098178;28;20051;-75
2022/04/28 12:26:48;;;;;;;8.05;2.75;;;44.40;7.80;;;;;;5116053;28;20430;-75
2022/04/28 12:29:19;;;;;;;5.07;2.47;;;42.40;8.40;;;;;;5113970;28;20496;-76
2022/04/28 12:31:47;;;;;;;6.97;2.30;;;41.20;9.20;;;;;;5114842;28;20032;-75
2022/04/28 12:34:33;;;;;;;7.15;2.78;;;42.60;8.70;;;;;;5115330;28;20119;-74
2022/04/28 12:37:00;;;;;;;5.35;2.38;;;42.90;8.40;;;;;;5114463;28;20028;-77
2022/04/28 12:39:27;;;;;;;4.78;2.58;;;42.40;8.70;;;;;;5116187;28;20020;-76
2022/04/28 12:41:53;;;;;;;5.93;2.65;;;43.40;8.50;;;;;;5097587;28;20544;-76
2022/04/28 12:44:22;;;;;;;8.05;2.97;;;44.00;8.20;;;;;;5114086;28;20123;-74
2022/04/28 12:46:49;;;;;;;5.90;3.05;;;44.50;7.80;;;;;;5114475;28;20023;-76
2022/04/28 12:49:17;;;;;;;5.03;2.25;;;44.80;8.30;;;;;;5114998;28;20452;-73
2022/04/28 12:51:47;;;;;;;4.63;2.45;;;44.30;7.70;;;;;;5114474;28;20384;-74
2022/04/28 12:54:33;;;;;;;6.07;2.40;;;44.80;7.70;;;;;;5114932;28;20047;-76
2022/04/28 12:57:05;;;;;;;7.28;2.50;;;44.60;7.90;;;;;;5113378;28;20038;-76
2022/04/28 12:59:50;;;;;;;12.30;2.92;;;44.00;8.40;;;;;;5113648;28;20068;-76
2022/04/28 13:02:30;;;;;;;11.38;3.03;;;45.00;8.40;;;;;;5097073;28;20035;-77
2022/04/28 13:07:56;;;;;;;6.97;2.70;;;45.60;7.60;;;;;;5116026;28;20512;-76
2022/04/28 13:10:24;;;;;;;6.85;2.75;;;45.60;7.30;;;;;;5115433;28;20043;-76
2022/04/28 13:12:51;;;;;;;5.28;2.53;;;45.50;7.40;;;;;;5113477;28;20484;-74
2022/04/28 13:15:17;;;;;;;11.45;4.15;;;44.30;7.80;;;;;;5096966;28;20023;-76
2022/04/28 13:17:43;;;;;;;6.30;2.72;;;45.10;7.90;;;;;;5097214;28;20031;-73
2022/04/28 13:20:10;;;;;;;7.18;2.38;;;44.40;7.40;;;;;;5114980;28;20396;-77
2022/04/28 13:22:36;;;;;;;7.40;2.20;;;43.80;7.50;;;;;;5096990;28;20063;-72
2022/04/28 13:25:03;;;;;;;6.20;2.45;;;41.20;9.20;;;;;;5115276;28;20365;-75
2022/04/28 13:27:29;;;;;;;9.70;2.60;;;39.70;9.20;;;;;;5113549;28;20052;-75
2022/04/28 13:29:56;;;;;;;4.72;2.33;;;40.40;10.00;;;;;;5113186;28;20439;-74
2022/04/28 13:32:22;;;;;;;5.75;2.20;;;41.00;9.10;;;;;;5114823;28;20490;-74
2022/04/28 13:34:48;;;;;;;4.93;2.50;;;42.10;9.30;;;;;;5113957;28;20027;-74
2022/04/28 13:37:14;;;;;;;5.75;2.50;;;42.80;8.80;;;;;;5114550;28;20031;-75
2022/04/28 13:39:40;;;;;;;5.30;2.58;;;43.50;8.20;;;;;;5113861;28;20028;-73
2022/04/28 13:42:07;;;;;;;7.03;2.40;;;43.40;8.20;;;;;;5114463;28;20053;-73
2022/04/28 13:44:33;;;;;;;5.40;2.40;;;42.80;8.40;;;;;;5095885;28;20039;-73
2022/04/28 13:46:59;;;;;;;3.92;2.22;;;41.40;9.60;;;;;;5114384;28;20449;-75
2022/04/28 13:49:26;;;;;;;4.25;2.00;;;39.10;10.10;;;;;;5113447;28;20403;-73
2022/04/28 13:51:52;;;;;;;7.28;2.38;;;38.90;10.20;;;;;;5113280;28;20024;-75
2022/04/28 13:54:18;;;;;;;4.72;2.25;;;40.50;10.00;;;;;;5113510;28;20074;-74